createdAt,value
2022-08-05T00:01:35.992Z,98973.41
2022-08-05T00:04:05.233Z,98970.25
2022-08-05T00:06:35.840Z,98975.03
2022-08-05T00:09:05.115Z,98970.78
2022-08-05T00:11:49.544Z,98970.13
2022-08-05T00:14:27.855Z,98968.31
2022-08-05T00:16:56.127Z,98972.31
2022-08-05T00:19:25.038Z,98963.09
2022-08-05T00:22:01.306Z,98958.34
2022-08-05T00:24:31.154Z,98971.09
2022-08-05T00:26:59.252Z,98966.22
2022-08-05T00:29:27.572Z,98963.44
2022-08-05T00:32:13.343Z,98960.09
2022-08-05T00:35:04.654Z,98948.94
2022-08-05T00:37:50.330Z,98949.19
2022-08-05T00:40:27.361Z,98954.13
2022-08-05T00:43:01.092Z,98951.09
2022-08-05T00:45:43.109Z,98947.56
2022-08-05T00:48:27.394Z,98949.38
2022-08-05T00:50:54.624Z,98945.59
2022-08-05T00:54:00.396Z,98945.44
2022-08-05T00:56:10.395Z,98941.09
2022-08-05T00:58:39.140Z,98935.78
2022-08-05T01:01:10.690Z,98928.84
2022-08-05T01:03:38.969Z,98928.53
2022-08-05T01:06:06.598Z,98924.22
2022-08-05T01:08:44.604Z,98932.69
2022-08-05T01:11:24.214Z,98927.47
2022-08-05T01:14:09.909Z,98927.00
2022-08-05T01:16:49.491Z,98931.31
2022-08-05T01:20:02.451Z,98930.69
2022-08-05T01:22:47.322Z,98935.16
2022-08-05T01:25:16.848Z,98942.38
2022-08-05T01:28:11.314Z,98942.00
2022-08-05T01:30:52.423Z,98941.91
2022-08-05T01:33:25.236Z,98937.91
2022-08-05T01:35:55.554Z,98942.59
2022-08-05T01:38:29.196Z,98945.44
2022-08-05T01:40:59.826Z,98943.63
2022-08-05T01:43:29.818Z,98941.31
2022-08-05T01:45:58.871Z,98934.94
2022-08-05T01:48:36.487Z,98947.03
2022-08-05T01:51:11.965Z,98945.28
2022-08-05T01:53:56.898Z,98938.50
2022-08-05T01:58:09.366Z,98935.94
2022-08-05T01:59:22.054Z,98934.09
2022-08-05T02:01:51.588Z,98935.84
2022-08-05T02:04:23.809Z,98930.59
2022-08-05T02:06:52.830Z,98917.69
2022-08-05T02:09:20.596Z,98930.47
2022-08-05T02:12:16.967Z,98929.09
2022-08-05T02:14:49.577Z,98932.72
2022-08-05T02:18:31.408Z,98930.88
2022-08-05T02:20:47.694Z,98932.88
2022-08-05T02:23:20.213Z,98934.31
2022-08-05T02:25:50.567Z,98928.72
2022-08-05T02:28:28.816Z,98929.88
2022-08-05T02:31:05.894Z,98934.44
2022-08-05T02:33:42.301Z,98928.81
2022-08-05T02:36:13.489Z,98939.38
2022-08-05T02:38:53.535Z,98933.06
2022-08-05T02:41:22.944Z,98926.03
2022-08-05T02:44:02.443Z,98930.84
2022-08-05T02:46:44.028Z,98936.81
2022-08-05T02:49:22.344Z,98929.41
2022-08-05T02:52:03.987Z,98938.16
2022-08-05T02:54:34.801Z,98924.16
2022-08-05T02:57:10.155Z,98939.31
2022-08-05T02:59:54.398Z,98936.84
2022-08-05T03:02:27.406Z,98929.81
2022-08-05T03:04:57.356Z,98931.56
2022-08-05T03:08:00.849Z,98927.09
2022-08-05T03:10:15.819Z,98923.59
2022-08-05T03:12:51.863Z,98925.09
2022-08-05T03:15:21.208Z,98928.16
2022-08-05T03:17:54.212Z,98916.91
2022-08-05T03:20:22.456Z,98926.28
2022-08-05T03:22:50.936Z,98919.16
2022-08-05T03:25:34.094Z,98914.53
2022-08-05T03:28:08.870Z,98916.19
2022-08-05T03:30:36.851Z,98910.16
2022-08-05T03:33:07.492Z,98917.00
2022-08-05T03:35:41.031Z,98914.53
2022-08-05T03:38:11.781Z,98916.50
2022-08-05T03:40:45.114Z,98915.84
2022-08-05T03:43:59.294Z,98920.00
2022-08-05T03:46:02.307Z,98921.31
2022-08-05T03:48:30.135Z,98925.63
2022-08-05T03:52:36.905Z,98911.59
2022-08-05T03:56:04.725Z,98918.69
2022-08-05T03:57:41.662Z,98919.44
2022-08-05T04:00:16.300Z,98914.44
2022-08-05T04:02:57.890Z,98910.38
2022-08-05T04:05:33.651Z,98916.19
2022-08-05T04:08:14.781Z,98914.19
2022-08-05T04:10:54.585Z,98917.38
2022-08-05T04:13:21.987Z,98911.53
2022-08-05T04:16:03.319Z,98919.47
2022-08-05T04:18:34.403Z,98911.53
2022-08-05T04:21:03.989Z,98914.09
2022-08-05T04:24:05.396Z,98912.25
2022-08-05T04:26:18.644Z,98915.06
2022-08-05T04:28:51.114Z,98920.81
2022-08-05T04:31:19.571Z,98915.66
2022-08-05T04:34:18.009Z,98921.16
2022-08-05T04:36:46.304Z,98922.94
2022-08-05T04:39:16.863Z,98916.91
2022-08-05T04:41:45.829Z,98911.97
2022-08-05T04:44:14.902Z,98914.63
2022-08-05T04:46:48.642Z,98912.41
2022-08-05T04:49:15.520Z,98914.94
2022-08-05T04:51:45.369Z,98912.94
2022-08-05T04:54:12.379Z,98912.34
2022-08-05T04:56:40.099Z,98914.09
2022-08-05T04:59:22.093Z,98901.22
2022-08-05T05:02:07.542Z,98908.25
2022-08-05T05:04:47.750Z,98895.97
2022-08-05T05:07:17.039Z,98909.78
2022-08-05T05:09:45.077Z,98906.84
2022-08-05T05:12:11.957Z,98910.00
2022-08-05T05:14:38.784Z,98899.97
2022-08-05T05:17:22.773Z,98908.25
2022-08-05T05:19:54.025Z,98905.81
2022-08-05T05:22:24.596Z,98895.47
2022-08-05T05:24:59.441Z,98908.84
2022-08-05T05:27:41.263Z,98905.66
2022-08-05T05:30:29.644Z,98900.38
2022-08-05T05:33:00.438Z,98894.78
2022-08-05T05:35:39.783Z,98889.25
2022-08-05T05:38:13.426Z,98895.53
2022-08-05T05:40:49.621Z,98900.38
2022-08-05T05:43:54.530Z,98896.22
2022-08-05T05:46:17.470Z,98896.41
2022-08-05T05:48:47.825Z,98893.44
2022-08-05T05:51:20.049Z,98899.34
2022-08-05T05:53:58.058Z,98889.78
2022-08-05T05:56:32.562Z,98892.16
2022-08-05T05:59:05.374Z,98891.66
2022-08-05T06:01:38.918Z,98892.97
2022-08-05T06:04:08.566Z,98886.91
2022-08-05T06:06:47.722Z,98889.56
2022-08-05T06:09:27.466Z,98889.94
2022-08-05T06:12:03.704Z,98896.94
2022-08-05T06:14:31.303Z,98895.56
2022-08-05T06:16:58.872Z,98892.91
2022-08-05T06:19:34.701Z,98891.09
2022-08-05T06:22:06.840Z,98892.72
2022-08-05T06:24:42.045Z,98890.75
2022-08-05T06:28:09.513Z,98898.91
2022-08-05T06:30:04.623Z,98893.81
2022-08-05T06:32:44.964Z,98904.28
2022-08-05T06:35:15.496Z,98896.22
2022-08-05T06:38:04.275Z,98908.72
2022-08-05T06:40:38.193Z,98903.00
2022-08-05T06:43:58.516Z,98911.16
2022-08-05T06:46:06.964Z,98901.22
2022-08-05T06:48:53.483Z,98901.59
2022-08-05T06:51:29.446Z,98892.00
2022-08-05T06:54:01.693Z,98895.78
2022-08-05T06:56:29.762Z,98895.09
2022-08-05T06:58:56.621Z,98902.84
2022-08-05T07:01:32.443Z,98908.50
2022-08-05T07:04:02.219Z,98895.59
2022-08-05T07:06:29.392Z,98888.97
2022-08-05T07:08:56.178Z,98895.34
2022-08-05T07:11:27.983Z,98899.19
2022-08-05T07:14:20.780Z,98896.53
2022-08-05T07:17:59.725Z,98893.00
2022-08-05T07:20:31.212Z,98898.06
2022-08-05T07:22:34.714Z,98896.38
2022-08-05T07:25:23.803Z,98896.47
2022-08-05T07:27:58.318Z,98898.16
2022-08-05T07:30:32.101Z,98899.00
2022-08-05T07:33:05.442Z,98896.84
2022-08-05T07:36:05.059Z,98892.75
2022-08-05T07:38:33.641Z,98899.25
2022-08-05T07:42:09.232Z,98895.19
2022-08-05T07:43:51.277Z,98894.66
2022-08-05T07:46:24.637Z,98897.38
2022-08-05T07:49:02.776Z,98889.53
2022-08-05T07:51:40.984Z,98888.94
2022-08-05T07:54:26.235Z,98886.94
2022-08-05T07:57:02.335Z,98888.91
2022-08-05T07:59:41.330Z,98891.59
2022-08-05T08:02:15.711Z,98893.25
2022-08-05T08:04:46.411Z,98896.22
2022-08-05T08:07:13.958Z,98889.69
2022-08-05T08:09:42.016Z,98892.66
2022-08-05T08:12:19.219Z,98890.50
2022-08-05T08:14:55.942Z,98886.56
2022-08-05T08:17:23.807Z,98891.75
2022-08-05T08:20:10.366Z,98894.56
2022-08-05T08:22:41.190Z,98887.22
2022-08-05T08:25:16.033Z,98889.34
2022-08-05T08:27:47.666Z,98887.53
2022-08-05T08:30:33.983Z,98891.31
2022-08-05T08:33:09.276Z,98888.72
2022-08-05T08:35:52.226Z,98887.63
2022-08-05T08:38:32.210Z,98885.34
2022-08-05T08:41:14.044Z,98882.22
2022-08-05T08:45:23.303Z,98880.41
2022-08-05T08:46:32.260Z,98881.19
2022-08-05T08:50:03.782Z,98879.03
2022-08-05T08:52:03.193Z,98867.56
2022-08-05T08:54:32.535Z,98866.28
2022-08-05T08:57:00.497Z,98862.81
2022-08-05T08:59:33.607Z,98854.16
2022-08-05T09:02:02.313Z,98852.03
2022-08-05T09:04:30.688Z,98857.06
2022-08-05T09:06:58.438Z,98848.47
2022-08-05T09:09:34.542Z,98853.75
2022-08-05T09:12:20.032Z,98850.72
2022-08-05T09:14:56.508Z,98856.81
2022-08-05T09:17:43.172Z,98843.09
2022-08-05T09:20:36.382Z,98845.81
2022-08-05T09:23:19.220Z,98838.50
2022-08-05T09:26:06.189Z,98840.13
2022-08-05T09:28:35.235Z,98835.06
2022-08-05T09:31:22.277Z,98839.63
2022-08-05T09:34:01.089Z,98835.75
2022-08-05T09:36:56.036Z,98825.72
2022-08-05T09:39:41.268Z,98826.44
2022-08-05T09:42:20.173Z,98824.31
2022-08-05T09:44:56.842Z,98823.22
2022-08-05T09:47:36.552Z,98827.84
2022-08-05T09:50:14.634Z,98819.63
2022-08-05T09:52:45.400Z,98816.56
2022-08-05T09:55:59.100Z,98814.63
2022-08-05T09:57:59.945Z,98814.28
2022-08-05T10:00:27.758Z,98816.84
2022-08-05T10:02:58.662Z,98808.63
2022-08-05T10:05:28.288Z,98809.25
2022-08-05T10:08:35.113Z,98810.34
2022-08-05T10:10:54.524Z,98807.72
2022-08-05T10:13:47.883Z,98798.34
2022-08-05T10:16:37.765Z,98801.91
2022-08-05T10:19:23.673Z,98798.06
2022-08-05T10:22:09.016Z,98803.00
2022-08-05T10:24:42.423Z,98799.53
2022-08-05T10:27:16.626Z,98801.38
2022-08-05T10:30:07.143Z,98798.66
2022-08-05T10:32:53.684Z,98784.50
2022-08-05T10:35:19.266Z,98788.78
2022-08-05T10:37:47.158Z,98780.81
2022-08-05T10:40:57.871Z,98787.03
2022-08-05T10:43:36.427Z,98783.00
2022-08-05T10:46:09.696Z,98789.50
2022-08-05T10:48:56.481Z,98781.03
2022-08-05T10:51:28.879Z,98778.75
2022-08-05T10:54:01.885Z,98772.53
2022-08-05T10:56:49.496Z,98781.75
2022-08-05T11:00:03.740Z,98779.66
2022-08-05T11:02:34.769Z,98776.38
2022-08-05T11:05:05.828Z,98767.47
2022-08-05T11:08:02.477Z,98778.44
2022-08-05T11:10:27.366Z,98766.69
2022-08-05T11:12:55.945Z,98771.72
2022-08-05T11:16:00.824Z,98777.25
2022-08-05T11:18:32.412Z,98780.25
2022-08-05T11:21:00.196Z,98772.00
2022-08-05T11:24:04.472Z,98773.06
2022-08-05T11:26:28.996Z,98774.28
2022-08-05T11:29:06.605Z,98772.41
2022-08-05T11:31:54.449Z,98776.63
2022-08-05T11:34:51.421Z,98782.56
2022-08-05T11:38:29.157Z,98780.72
2022-08-05T11:41:13.976Z,98778.19
2022-08-05T11:44:06.033Z,98774.31
2022-08-05T11:47:09.634Z,98774.38
2022-08-05T11:49:36.031Z,98771.06
2022-08-05T11:52:08.805Z,98771.53
2022-08-05T11:54:40.674Z,98765.88
2022-08-05T11:57:25.321Z,98765.00
2022-08-05T11:59:54.865Z,98767.41
2022-08-05T12:02:33.067Z,98762.00
2022-08-05T12:05:07.203Z,98759.03
2022-08-05T12:08:04.412Z,98760.72
2022-08-05T12:10:39.038Z,98762.50
2022-08-05T12:13:28.141Z,98762.81
2022-08-05T12:16:15.468Z,98763.50
2022-08-05T12:18:52.317Z,98763.63
2022-08-05T12:21:38.932Z,98768.13
2022-08-05T12:24:14.291Z,98767.28
2022-08-05T12:26:52.806Z,98767.53
2022-08-05T12:29:22.775Z,98768.16
2022-08-05T12:32:02.286Z,98762.88
2022-08-05T12:34:37.039Z,98764.09
2022-08-05T12:37:17.599Z,98759.69
2022-08-05T12:39:51.523Z,98768.75
2022-08-05T12:42:20.997Z,98769.41
2022-08-05T12:44:48.403Z,98766.03
2022-08-05T12:47:28.827Z,98767.03
2022-08-05T12:50:03.165Z,98764.69
2022-08-05T12:52:41.765Z,98759.56
2022-08-05T12:55:23.949Z,98761.72
2022-08-05T12:58:49.607Z,98762.09
2022-08-05T13:02:00.103Z,98761.31
2022-08-05T13:03:41.810Z,98760.63
2022-08-05T13:06:13.785Z,98774.72
2022-08-05T13:08:51.443Z,98762.25
2022-08-05T13:12:02.258Z,98759.16
2022-08-05T13:14:24.815Z,98765.19
2022-08-05T13:17:41.418Z,98766.94
2022-08-05T13:20:24.618Z,98770.19
2022-08-05T13:22:53.305Z,98762.13
2022-08-05T13:25:22.013Z,98756.91
2022-08-05T13:27:53.077Z,98753.28
2022-08-05T13:30:34.837Z,98759.75
2022-08-05T13:33:03.857Z,98748.53
2022-08-05T13:35:47.021Z,98748.66
2022-08-05T13:38:19.999Z,98746.00
2022-08-05T13:40:55.466Z,98753.72
2022-08-05T13:43:22.447Z,98751.47
2022-08-05T13:45:50.883Z,98747.03
2022-08-05T13:48:58.648Z,98750.28
2022-08-05T13:51:09.589Z,98745.03
2022-08-05T13:53:48.162Z,98746.63
2022-08-05T13:56:18.967Z,98737.47
2022-08-05T13:58:52.928Z,98735.22
2022-08-05T14:01:22.804Z,98740.03
2022-08-05T14:04:12.959Z,98729.38
2022-08-05T14:06:39.680Z,98722.59
2022-08-05T14:09:14.587Z,98702.94
2022-08-05T14:12:03.950Z,98714.22
2022-08-05T14:14:33.539Z,98719.56
2022-08-05T14:17:00.799Z,98717.56
2022-08-05T14:19:27.504Z,98710.19
2022-08-05T14:22:09.529Z,98707.19
2022-08-05T14:24:40.076Z,98706.03
2022-08-05T14:27:18.614Z,98700.81
2022-08-05T14:29:45.530Z,98704.22
2022-08-05T14:32:27.742Z,98704.69
2022-08-05T14:34:56.956Z,98710.69
2022-08-05T14:37:45.622Z,98708.28
2022-08-05T14:40:14.216Z,98707.53
2022-08-05T14:42:44.256Z,98702.84
2022-08-05T14:45:11.539Z,98706.97
2022-08-05T14:48:04.116Z,98703.75
2022-08-05T14:50:25.273Z,98698.44
2022-08-05T14:52:57.598Z,98699.34
2022-08-05T14:55:28.536Z,98699.72
2022-08-05T14:58:11.407Z,98700.84
2022-08-05T15:00:58.508Z,98705.78
2022-08-05T15:03:33.849Z,98696.06
2022-08-05T15:06:07.563Z,98701.56
2022-08-05T15:08:59.823Z,98704.66
2022-08-05T15:11:51.372Z,98697.91
2022-08-05T15:14:33.306Z,98702.38
2022-08-05T15:17:01.258Z,98711.22
2022-08-05T15:19:27.963Z,98707.75
2022-08-05T15:21:59.874Z,98700.63
2022-08-05T15:24:27.799Z,98692.31
2022-08-05T15:26:56.066Z,98692.50
2022-08-05T15:29:30.224Z,98699.28
2022-08-05T15:32:02.338Z,98701.34
2022-08-05T15:34:33.008Z,98690.69
2022-08-05T15:37:06.196Z,98689.72
2022-08-05T15:41:00.101Z,98692.53
2022-08-05T15:42:28.732Z,98690.00
2022-08-05T15:45:11.317Z,98684.22
2022-08-05T15:47:42.234Z,98678.56
2022-08-05T15:50:09.938Z,98688.09
2022-08-05T15:52:53.460Z,98689.25
2022-08-05T15:55:24.794Z,98692.22
2022-08-05T15:57:52.446Z,98697.19
2022-08-05T16:00:26.176Z,98690.41
2022-08-05T16:02:59.916Z,98703.75
2022-08-05T16:05:28.472Z,98703.09
2022-08-05T16:07:55.382Z,98713.78
2022-08-05T16:10:25.631Z,98717.13
2022-08-05T16:12:56.057Z,98711.03
2022-08-05T16:15:23.460Z,98717.03
2022-08-05T16:17:57.367Z,98724.19
2022-08-05T16:20:25.426Z,98722.41
2022-08-05T16:22:52.136Z,98720.16
2022-08-05T16:25:18.884Z,98715.28
2022-08-05T16:27:59.852Z,98708.63
2022-08-05T16:30:30.712Z,98719.88
2022-08-05T16:32:59.567Z,98711.38
2022-08-05T16:35:28.712Z,98706.25
2022-08-05T16:38:03.419Z,98713.34
2022-08-05T16:40:48.044Z,98716.19
2022-08-05T16:43:24.917Z,98726.44
2022-08-05T16:46:07.178Z,98715.22
2022-08-05T16:48:40.526Z,98714.88
2022-08-05T16:51:09.136Z,98715.69
2022-08-05T16:54:04.772Z,98714.22
2022-08-05T16:56:29.535Z,98718.31
2022-08-05T16:58:58.009Z,98715.56
2022-08-05T17:01:25.212Z,98719.28
2022-08-05T17:03:52.295Z,98717.91
2022-08-05T17:06:20.447Z,98714.97
2022-08-05T17:08:53.814Z,98708.31
2022-08-05T17:11:25.332Z,98711.72
2022-08-05T17:13:54.705Z,98713.00
2022-08-05T17:16:37.797Z,98706.88
2022-08-05T17:19:07.794Z,98709.13
2022-08-05T17:21:37.761Z,98706.09
2022-08-05T17:24:19.794Z,98709.31
2022-08-05T17:26:58.662Z,98705.59
2022-08-05T17:29:33.268Z,98716.00
2022-08-05T17:32:11.372Z,98718.53
2022-08-05T17:34:43.682Z,98719.38
2022-08-05T17:37:27.327Z,98714.16
2022-08-05T17:39:57.500Z,98714.94
2022-08-05T17:42:32.125Z,98713.88
2022-08-05T17:45:09.724Z,98714.31
2022-08-05T17:47:37.055Z,98732.25
2022-08-05T17:50:10.614Z,98735.59
2022-08-05T17:52:53.281Z,98739.88
2022-08-05T17:55:22.844Z,98735.19
2022-08-05T17:58:02.255Z,98734.88
2022-08-05T18:00:29.573Z,98729.88
2022-08-05T18:02:56.775Z,98733.31
2022-08-05T18:05:24.024Z,98737.25
2022-08-05T18:07:56.770Z,98737.44
2022-08-05T18:10:23.897Z,98739.72
2022-08-05T18:12:51.312Z,98731.56
2022-08-05T18:15:18.250Z,98736.69
2022-08-05T18:18:01.117Z,98738.16
2022-08-05T18:20:32.245Z,98748.00
2022-08-05T18:23:11.944Z,98741.41
2022-08-05T18:25:42.756Z,98746.91
2022-08-05T18:28:17.579Z,98748.84
2022-08-05T18:30:51.224Z,98754.34
2022-08-05T18:33:22.657Z,98752.63
2022-08-05T18:36:03.869Z,98755.69
2022-08-05T18:38:36.957Z,98758.06
2022-08-05T18:41:53.250Z,98766.00
2022-08-05T18:43:54.268Z,98768.28
2022-08-05T18:46:20.960Z,98771.84
2022-08-05T18:48:52.200Z,98764.19
2022-08-05T18:52:04.238Z,98771.28
2022-08-05T18:54:31.723Z,98769.50
2022-08-05T18:57:01.899Z,98774.13
2022-08-05T18:59:44.438Z,98774.19
2022-08-05T19:02:38.036Z,98784.03
2022-08-05T19:06:05.894Z,98792.19
2022-08-05T19:07:55.289Z,98793.81
2022-08-05T19:10:27.860Z,98785.69
2022-08-05T19:12:59.026Z,98786.00
2022-08-05T19:15:58.902Z,98780.06
2022-08-05T19:18:22.328Z,98777.09
2022-08-05T19:20:52.435Z,98775.19
2022-08-05T19:24:03.604Z,98776.00
2022-08-05T19:26:08.548Z,98776.53
2022-08-05T19:28:43.633Z,98778.91
2022-08-05T19:31:14.996Z,98787.31
2022-08-05T19:33:55.727Z,98784.38
2022-08-05T19:36:29.281Z,98790.69
2022-08-05T19:39:00.967Z,98793.91
2022-08-05T19:41:58.397Z,98795.81
2022-08-05T19:44:16.116Z,98788.41
2022-08-05T19:46:43.638Z,98792.75
2022-08-05T19:49:12.600Z,98796.84
2022-08-05T19:52:08.324Z,98794.66
2022-08-05T19:54:31.899Z,98786.00
2022-08-05T19:56:59.941Z,98796.84
2022-08-05T19:59:55.028Z,98794.16
2022-08-05T20:02:17.885Z,98798.28
2022-08-05T20:04:46.124Z,98804.25
2022-08-05T20:07:15.769Z,98805.88
2022-08-05T20:10:04.800Z,98799.09
2022-08-05T20:12:38.137Z,98796.41
2022-08-05T20:15:13.738Z,98807.56
2022-08-05T20:17:40.415Z,98804.28
2022-08-05T20:20:11.073Z,98799.97
2022-08-05T20:22:37.954Z,98803.75
2022-08-05T20:25:09.320Z,98803.22
2022-08-05T20:27:41.745Z,98798.59
2022-08-05T20:30:10.271Z,98799.94
2022-08-05T20:32:37.257Z,98797.78
2022-08-05T20:35:12.004Z,98789.63
2022-08-05T20:38:08.104Z,98797.78
2022-08-05T20:40:27.347Z,98792.34
2022-08-05T20:43:00.194Z,98798.34
2022-08-05T20:45:56.501Z,98791.03
2022-08-05T20:48:16.408Z,98794.81
2022-08-05T20:50:46.778Z,98794.03
2022-08-05T20:53:15.923Z,98792.66
2022-08-05T20:56:08.551Z,98792.41
2022-08-05T20:58:36.191Z,98784.78
2022-08-05T21:01:04.591Z,98789.41
2022-08-05T21:03:34.620Z,98786.97
2022-08-05T21:06:01.980Z,98784.78
2022-08-05T21:08:41.939Z,98790.78
2022-08-05T21:11:12.597Z,98788.88
2022-08-05T21:13:48.229Z,98799.19
2022-08-05T21:16:29.904Z,98794.28
2022-08-05T21:18:59.983Z,98798.88
2022-08-05T21:21:44.248Z,98804.59
2022-08-05T21:24:19.663Z,98794.00
2022-08-05T21:26:53.238Z,98805.91
2022-08-05T21:29:23.505Z,98810.22
2022-08-05T21:31:53.756Z,98805.34
2022-08-05T21:34:20.947Z,98809.69
2022-08-05T21:36:49.349Z,98807.72
2022-08-05T21:39:16.929Z,98824.81
2022-08-05T21:42:01.163Z,98826.69
2022-08-05T21:44:31.886Z,98836.22
2022-08-05T21:46:59.304Z,98837.84
2022-08-05T21:49:58.835Z,98843.03
2022-08-05T21:52:27.710Z,98845.75
2022-08-05T21:54:57.654Z,98844.69
2022-08-05T21:57:33.298Z,98842.84
2022-08-05T22:00:05.959Z,98845.00
2022-08-05T22:02:43.567Z,98845.00
2022-08-05T22:05:12.493Z,98838.47
2022-08-05T22:07:58.939Z,98839.03
2022-08-05T22:10:27.588Z,98845.28
2022-08-05T22:12:58.996Z,98839.31
2022-08-05T22:16:02.071Z,98855.31
2022-08-05T22:18:25.829Z,98842.28
2022-08-05T22:20:52.973Z,98839.59
2022-08-05T22:24:01.251Z,98838.47
2022-08-05T22:26:49.800Z,98848.25
2022-08-05T22:29:18.867Z,98832.53
2022-08-05T22:31:55.315Z,98836.59
2022-08-05T22:34:28.680Z,98828.72
2022-08-05T22:36:56.774Z,98823.84
2022-08-05T22:39:32.552Z,98829.53
2022-08-05T22:42:10.589Z,98834.97
2022-08-05T22:44:40.520Z,98840.16
2022-08-05T22:47:09.411Z,98838.53
2022-08-05T22:50:19.259Z,98842.84
2022-08-05T22:52:32.153Z,98845.81
2022-08-05T22:55:01.754Z,98840.94
2022-08-05T22:57:34.242Z,98846.06
2022-08-05T23:00:06.151Z,98848.28
2022-08-05T23:02:35.682Z,98853.69
2022-08-05T23:05:13.764Z,98853.41
2022-08-05T23:07:48.366Z,98854.81
2022-08-05T23:10:20.035Z,98862.94
2022-08-05T23:12:54.598Z,98864.28
2022-08-05T23:15:29.011Z,98858.88
2022-08-05T23:18:01.209Z,98864.53
2022-08-05T23:20:29.875Z,98862.38
2022-08-05T23:22:58.437Z,98867.28
2022-08-05T23:25:54.733Z,98868.38
2022-08-05T23:28:12.912Z,98864.53
2022-08-05T23:30:52.835Z,98867.50
2022-08-05T23:33:26.434Z,98860.22
2022-08-05T23:36:10.125Z,98869.41
2022-08-05T23:38:37.410Z,98863.44
2022-08-05T23:41:04.137Z,98863.44
2022-08-05T23:43:37.232Z,98871.59
2022-08-05T23:46:19.945Z,98861.56
2022-08-05T23:49:00.257Z,98863.72
2022-08-05T23:51:53.647Z,98857.47
2022-08-05T23:54:29.816Z,98858.56
2022-08-05T23:57:03.219Z,98857.53
